createdAt,value
2018-10-06T00:01:15.032Z,20.73
2018-10-06T00:03:44.002Z,25.80
2018-10-06T00:06:13.018Z,19.23
2018-10-06T00:08:42.126Z,27.93
2018-10-06T00:11:11.188Z,18.70
2018-10-06T00:13:40.206Z,19.03
2018-10-06T00:16:09.282Z,25.37
2018-10-06T00:18:38.649Z,20.50
2018-10-06T00:21:07.702Z,22.73
2018-10-06T00:23:36.830Z,25.33
2018-10-06T00:26:05.920Z,23.63
2018-10-06T00:28:35.030Z,28.23
2018-10-06T00:31:04.125Z,27.80
2018-10-06T00:33:34.214Z,23.10
2018-10-06T00:36:03.310Z,26.63
2018-10-06T00:38:32.416Z,29.53
2018-10-06T00:41:01.482Z,28.83
2018-10-06T00:43:30.958Z,26.70
2018-10-06T00:45:59.953Z,23.03
2018-10-06T00:48:28.985Z,23.37
2018-10-06T00:50:58.046Z,23.23
2018-10-06T00:53:27.049Z,21.20
2018-10-06T00:55:56.154Z,23.23
2018-10-06T00:58:25.185Z,23.47
2018-10-06T01:00:54.240Z,19.30
2018-10-06T01:03:23.315Z,25.43
2018-10-06T01:05:52.339Z,25.80
2018-10-06T01:08:21.458Z,23.93
2018-10-06T01:10:50.613Z,26.50
2018-10-06T01:13:19.715Z,28.67
2018-10-06T01:15:48.805Z,25.33
2018-10-06T01:18:17.781Z,26.43
2018-10-06T01:20:46.814Z,23.90
2018-10-06T01:23:15.789Z,20.63
2018-10-06T01:25:44.793Z,23.33
2018-10-06T01:28:13.906Z,25.47
2018-10-06T01:30:42.901Z,21.07
2018-10-06T01:33:11.942Z,28.17
2018-10-06T01:35:40.961Z,22.53
2018-10-06T01:38:10.055Z,25.97
2018-10-06T01:40:39.093Z,21.63
2018-10-06T01:43:08.091Z,27.37
2018-10-06T01:45:37.044Z,28.87
2018-10-06T01:48:06.724Z,21.60
2018-10-06T01:50:35.679Z,20.37
2018-10-06T01:53:04.669Z,22.13
2018-10-06T01:55:33.664Z,25.23
2018-10-06T01:58:02.646Z,22.17
2018-10-06T02:00:31.714Z,26.73
2018-10-06T02:03:00.770Z,25.83
2018-10-06T02:05:29.708Z,24.43
2018-10-06T02:07:58.862Z,29.73
2018-10-06T02:10:28.162Z,22.40
2018-10-06T02:12:57.118Z,27.10
2018-10-06T02:15:26.098Z,24.47
2018-10-06T02:17:55.111Z,23.73
2018-10-06T02:20:24.090Z,23.57
2018-10-06T02:22:53.173Z,23.03
2018-10-06T02:25:22.182Z,29.53
2018-10-06T02:27:51.181Z,26.57
2018-10-06T02:30:20.287Z,28.63
2018-10-06T02:32:49.572Z,28.13
2018-10-06T02:35:18.668Z,26.43
2018-10-06T02:37:47.686Z,24.07
2018-10-06T02:40:16.656Z,22.70
2018-10-06T02:42:45.637Z,28.53
2018-10-06T02:45:14.629Z,24.47
2018-10-06T02:47:43.646Z,28.87
2018-10-06T02:50:12.650Z,27.67
2018-10-06T02:52:41.652Z,26.73
2018-10-06T02:55:10.668Z,23.60
2018-10-06T02:57:39.648Z,24.37
2018-10-06T03:00:08.795Z,24.53
2018-10-06T03:02:37.875Z,21.43
2018-10-06T03:05:07.016Z,26.50
2018-10-06T03:07:35.985Z,25.87
2018-10-06T03:10:05.078Z,26.33
2018-10-06T03:12:34.069Z,22.93
2018-10-06T03:15:03.066Z,26.83
2018-10-06T03:17:32.082Z,27.07
2018-10-06T03:20:01.081Z,25.87
2018-10-06T03:22:30.036Z,30.17
2018-10-06T03:24:59.053Z,27.13
2018-10-06T03:27:28.045Z,26.50
2018-10-06T03:29:57.029Z,27.60
2018-10-06T03:32:26.030Z,28.27
2018-10-06T03:34:55.018Z,23.30
2018-10-06T03:37:24.009Z,21.17
2018-10-06T03:39:53.027Z,26.13
2018-10-06T03:42:22.034Z,23.37
2018-10-06T03:44:51.009Z,25.13
2018-10-06T03:47:20.046Z,26.00
2018-10-06T03:49:49.154Z,25.47
2018-10-06T03:52:18.258Z,24.70
2018-10-06T03:54:47.242Z,23.27
2018-10-06T03:57:16.341Z,24.27
2018-10-06T03:59:45.585Z,24.77
2018-10-06T04:02:14.593Z,23.57
2018-10-06T04:04:43.595Z,26.07
2018-10-06T04:07:12.595Z,20.27
2018-10-06T04:09:41.678Z,24.80
2018-10-06T04:12:10.803Z,22.80
2018-10-06T04:14:49.295Z,23.30
2018-10-06T04:17:18.283Z,22.10
2018-10-06T04:19:47.307Z,25.57
2018-10-06T04:22:16.479Z,22.73
2018-10-06T04:24:45.585Z,23.93
2018-10-06T04:27:14.675Z,22.43
2018-10-06T04:29:43.777Z,24.10
2018-10-06T04:32:12.874Z,25.30
2018-10-06T04:34:41.963Z,25.87
2018-10-06T04:37:11.069Z,28.87
2018-10-06T04:39:40.171Z,24.63
2018-10-06T04:42:09.258Z,25.27
2018-10-06T04:44:38.365Z,30.13
2018-10-06T04:47:07.382Z,25.57
2018-10-06T04:49:36.373Z,24.90
2018-10-06T04:52:05.525Z,24.10
2018-10-06T04:54:34.621Z,22.70
2018-10-06T04:57:03.701Z,24.37
2018-10-06T04:59:32.852Z,25.63
2018-10-06T05:02:01.917Z,25.27
2018-10-06T05:04:31.021Z,23.93
2018-10-06T05:07:00.021Z,23.97
2018-10-06T05:09:28.983Z,27.97
2018-10-06T05:11:58.113Z,25.57
2018-10-06T05:14:27.095Z,26.83
2018-10-06T05:16:56.144Z,29.07
2018-10-06T05:19:25.158Z,24.23
2018-10-06T05:21:54.189Z,27.33
2018-10-06T05:24:23.233Z,22.80
2018-10-06T05:26:52.209Z,24.83
2018-10-06T05:29:21.237Z,22.33
2018-10-06T05:31:50.387Z,24.13
2018-10-06T05:34:19.626Z,24.90
2018-10-06T05:36:48.713Z,23.57
2018-10-06T05:39:17.833Z,21.43
2018-10-06T05:41:46.934Z,23.20
2018-10-06T05:44:16.007Z,27.37
2018-10-06T05:46:45.103Z,31.10
2018-10-06T05:49:14.201Z,21.30
2018-10-06T05:51:43.299Z,22.27
2018-10-06T05:54:12.383Z,20.90
2018-10-06T05:56:41.466Z,19.60
2018-10-06T05:59:10.588Z,21.53
2018-10-06T06:01:39.585Z,26.67
2018-10-06T06:04:08.575Z,26.87
2018-10-06T06:06:37.568Z,25.63
2018-10-06T06:09:06.998Z,23.47
2018-10-06T06:11:36.276Z,23.87
2018-10-06T06:14:05.368Z,20.40
2018-10-06T06:16:34.430Z,26.73
2018-10-06T06:19:03.446Z,22.43
2018-10-06T06:21:32.467Z,23.77
2018-10-06T06:24:01.700Z,25.30
2018-10-06T06:26:30.509Z,25.67
2018-10-06T06:28:59.706Z,24.93
2018-10-06T06:31:28.741Z,21.03
2018-10-06T06:33:57.786Z,22.97
2018-10-06T06:36:26.772Z,23.40
2018-10-06T06:38:55.810Z,20.17
2018-10-06T06:41:24.917Z,19.50
2018-10-06T06:43:54.055Z,21.57
2018-10-06T06:46:22.990Z,18.73
2018-10-06T06:48:52.084Z,20.70
2018-10-06T06:51:21.190Z,23.20
2018-10-06T06:53:50.310Z,21.90
2018-10-06T06:56:19.301Z,17.87
2018-10-06T06:58:48.369Z,21.87
2018-10-06T07:01:17.466Z,22.07
2018-10-06T07:03:46.547Z,23.33
2018-10-06T07:06:15.638Z,24.20
2018-10-06T07:08:44.803Z,19.90
2018-10-06T07:11:13.834Z,18.20
2018-10-06T07:13:42.977Z,20.33
2018-10-06T07:16:12.048Z,18.80
2018-10-06T07:18:41.301Z,23.07
2018-10-06T07:21:10.309Z,17.70
2018-10-06T07:23:39.429Z,18.40
2018-10-06T07:26:08.493Z,21.33
2018-10-06T07:28:37.683Z,19.53
2018-10-06T07:31:06.787Z,19.77
2018-10-06T07:33:35.947Z,18.20
2018-10-06T07:36:05.042Z,19.30
2018-10-06T07:38:34.223Z,17.90
2018-10-06T07:41:03.399Z,17.73
2018-10-06T07:43:32.496Z,16.33
2018-10-06T07:46:01.600Z,18.87
2018-10-06T07:48:30.658Z,20.10
2018-10-06T07:50:59.846Z,17.30
2018-10-06T07:53:28.976Z,17.57
2018-10-06T07:55:58.036Z,20.00
2018-10-06T07:58:27.030Z,16.10
2018-10-06T08:00:56.074Z,17.43
2018-10-06T08:03:25.255Z,18.03
2018-10-06T08:05:54.325Z,17.17
2018-10-06T08:08:23.319Z,15.23
2018-10-06T08:10:52.331Z,12.93
2018-10-06T08:13:21.446Z,17.73
2018-10-06T08:15:50.528Z,14.77
2018-10-06T08:18:19.623Z,19.97
2018-10-06T08:20:48.623Z,16.97
2018-10-06T08:23:17.812Z,15.57
2018-10-06T08:25:46.870Z,21.67
2018-10-06T08:28:15.909Z,18.10
2018-10-06T08:30:44.931Z,14.03
2018-10-06T08:33:14.033Z,14.10
2018-10-06T08:35:43.061Z,16.23
2018-10-06T08:38:12.069Z,23.00
2018-10-06T08:40:41.215Z,15.67
2018-10-06T08:43:10.255Z,16.50
2018-10-06T08:45:39.419Z,11.73
2018-10-06T08:48:08.563Z,16.37
2018-10-06T08:50:37.667Z,16.83
2018-10-06T08:53:06.948Z,16.87
2018-10-06T08:55:36.048Z,16.97
2018-10-06T08:58:05.031Z,13.80
2018-10-06T09:00:34.087Z,14.40
2018-10-06T09:03:03.121Z,15.57
2018-10-06T09:05:32.205Z,13.27
2018-10-06T09:08:01.276Z,14.60
2018-10-06T09:10:30.283Z,12.37
2018-10-06T09:12:59.372Z,15.17
2018-10-06T09:15:28.395Z,15.13
2018-10-06T09:17:57.562Z,15.23
2018-10-06T09:20:26.508Z,12.17
2018-10-06T09:22:55.498Z,16.70
2018-10-06T09:25:24.663Z,15.73
2018-10-06T09:27:53.648Z,15.17
2018-10-06T09:30:22.654Z,14.30
2018-10-06T09:32:51.766Z,10.93
2018-10-06T09:35:20.914Z,13.67
2018-10-06T09:37:50.031Z,12.00
2018-10-06T09:40:19.078Z,15.90
2018-10-06T09:42:48.219Z,11.43
2018-10-06T09:45:17.178Z,13.83
2018-10-06T09:47:46.306Z,13.77
2018-10-06T09:50:15.338Z,10.83
2018-10-06T09:52:44.342Z,12.23
2018-10-06T09:55:13.474Z,17.07
2018-10-06T09:57:42.615Z,14.10
2018-10-06T10:00:11.696Z,14.50
2018-10-06T10:02:46.030Z,11.53
2018-10-06T10:05:20.444Z,14.40
2018-10-06T10:07:49.518Z,13.30
2018-10-06T10:10:18.562Z,12.73
2018-10-06T10:12:47.732Z,11.03
2018-10-06T10:15:16.712Z,16.40
2018-10-06T10:17:45.873Z,12.03
2018-10-06T10:20:14.798Z,12.07
2018-10-06T10:22:43.936Z,11.33
2018-10-06T10:25:13.118Z,11.00
2018-10-06T10:27:42.226Z,11.03
2018-10-06T10:30:11.386Z,13.23
2018-10-06T10:32:40.487Z,9.57
2018-10-06T10:35:09.644Z,9.57
2018-10-06T10:37:38.698Z,10.77
2018-10-06T10:40:07.972Z,9.47
2018-10-06T10:42:37.018Z,10.83
2018-10-06T10:45:06.126Z,8.33
2018-10-06T10:47:35.412Z,7.93
2018-10-06T10:50:04.610Z,7.70
2018-10-06T10:52:33.764Z,7.47
2018-10-06T10:55:02.804Z,8.10
2018-10-06T10:57:31.862Z,8.40
2018-10-06T11:00:01.146Z,7.30
2018-10-06T11:02:30.080Z,9.10
2018-10-06T11:04:59.154Z,6.60
2018-10-06T11:07:28.228Z,7.50
2018-10-06T11:09:57.302Z,8.80
2018-10-06T11:12:26.386Z,9.63
2018-10-06T11:14:55.737Z,9.27
2018-10-06T11:17:24.868Z,7.90
2018-10-06T11:19:53.877Z,7.50
2018-10-06T11:22:23.887Z,9.17
2018-10-06T11:24:52.990Z,9.87
2018-10-06T11:27:22.013Z,6.50
2018-10-06T11:29:51.001Z,7.53
2018-10-06T11:32:20.009Z,12.53
2018-10-06T11:34:49.061Z,9.60
2018-10-06T11:37:18.101Z,7.27
2018-10-06T11:39:47.117Z,6.63
2018-10-06T11:42:16.279Z,6.10
2018-10-06T11:44:45.403Z,9.97
2018-10-06T11:47:14.498Z,5.90
2018-10-06T11:49:43.599Z,8.83
2018-10-06T11:52:12.683Z,8.80
2018-10-06T11:54:41.948Z,6.87
2018-10-06T11:57:11.030Z,6.87
2018-10-06T11:59:40.152Z,11.33
2018-10-06T12:02:09.167Z,6.87
2018-10-06T12:04:38.285Z,5.77
2018-10-06T12:07:07.544Z,5.70
2018-10-06T12:09:36.538Z,7.57
2018-10-06T12:12:09.355Z,10.87
2018-10-06T12:14:38.435Z,7.57
2018-10-06T12:17:07.539Z,7.27
2018-10-06T12:19:36.641Z,9.30
2018-10-06T12:22:05.730Z,7.97
2018-10-06T12:24:34.814Z,7.73
2018-10-06T12:27:03.978Z,10.17
2018-10-06T12:29:33.017Z,8.40
2018-10-06T12:32:02.104Z,5.83
2018-10-06T12:34:31.126Z,5.40
2018-10-06T12:37:00.203Z,8.50
2018-10-06T12:39:29.396Z,8.03
2018-10-06T12:41:58.479Z,8.50
2018-10-06T12:44:27.588Z,6.13
2018-10-06T12:46:56.628Z,5.23
2018-10-06T12:49:25.689Z,7.87
2018-10-06T12:51:54.725Z,9.73
2018-10-06T12:54:23.712Z,9.67
2018-10-06T12:56:52.805Z,8.73
2018-10-06T12:59:21.865Z,6.93
2018-10-06T13:01:50.933Z,8.93
2018-10-06T13:04:19.974Z,7.43
2018-10-06T13:06:49.033Z,8.67
2018-10-06T13:09:18.578Z,7.97
2018-10-06T13:11:47.867Z,6.13
2018-10-06T13:14:16.902Z,6.47
2018-10-06T13:16:45.938Z,7.90
2018-10-06T13:19:15.028Z,7.40
2018-10-06T13:21:44.084Z,7.27
2018-10-06T13:24:13.073Z,6.63
2018-10-06T13:26:42.079Z,7.90
2018-10-06T13:29:11.051Z,9.67
2018-10-06T13:31:40.107Z,6.17
2018-10-06T13:34:09.220Z,9.73
2018-10-06T13:36:38.510Z,9.57
2018-10-06T13:39:08.478Z,10.53
2018-10-06T13:41:37.588Z,9.37
2018-10-06T13:44:06.707Z,7.87
2018-10-06T13:46:35.870Z,9.40
2018-10-06T13:49:04.878Z,8.33
2018-10-06T13:51:33.966Z,7.33
2018-10-06T13:54:03.005Z,7.13
2018-10-06T13:56:32.082Z,7.50
2018-10-06T13:59:01.276Z,9.83
2018-10-06T14:01:30.350Z,9.80
2018-10-06T14:03:59.466Z,9.37
2018-10-06T14:06:28.614Z,9.00
2018-10-06T14:08:57.856Z,10.27
2018-10-06T14:11:26.938Z,12.13
2018-10-06T14:13:56.058Z,10.47
2018-10-06T14:16:25.085Z,6.27
2018-10-06T14:18:54.199Z,8.27
2018-10-06T14:21:23.309Z,7.20
2018-10-06T14:23:52.442Z,7.97
2018-10-06T14:26:21.794Z,6.73
2018-10-06T14:28:50.815Z,8.23
2018-10-06T14:31:19.927Z,7.47
2018-10-06T14:33:49.010Z,8.33
2018-10-06T14:36:18.142Z,9.13
2018-10-06T14:38:47.214Z,8.63
2018-10-06T14:41:16.314Z,7.77
2018-10-06T14:43:45.426Z,4.13
2018-10-06T14:46:14.522Z,7.30
2018-10-06T14:48:43.652Z,7.73
2018-10-06T14:51:13.185Z,8.97
2018-10-06T14:53:42.323Z,8.83
2018-10-06T14:56:11.397Z,14.07
2018-10-06T14:58:40.483Z,9.13
2018-10-06T15:01:09.586Z,9.53
2018-10-06T15:03:38.633Z,11.67
2018-10-06T15:06:07.689Z,11.93
2018-10-06T15:08:36.791Z,9.33
2018-10-06T15:11:05.963Z,5.37
2018-10-06T15:13:36.027Z,7.73
2018-10-06T15:16:05.121Z,8.73
2018-10-06T15:18:34.185Z,11.27
2018-10-06T15:21:03.311Z,6.57
2018-10-06T15:23:32.337Z,7.30
2018-10-06T15:26:01.355Z,7.83
2018-10-06T15:28:30.465Z,6.83
2018-10-06T15:30:59.534Z,4.90
2018-10-06T15:33:28.633Z,5.23
2018-10-06T15:35:58.056Z,8.03
2018-10-06T15:38:27.074Z,8.33
2018-10-06T15:40:56.170Z,7.10
2018-10-06T15:43:25.209Z,6.13
2018-10-06T15:45:54.225Z,6.63
2018-10-06T15:48:23.350Z,5.43
2018-10-06T15:50:52.552Z,9.57
2018-10-06T15:53:21.701Z,7.07
2018-10-06T15:55:50.685Z,8.60
2018-10-06T15:58:19.703Z,5.63
2018-10-06T16:00:48.694Z,7.13
2018-10-06T16:03:17.678Z,6.43
2018-10-06T16:05:46.856Z,6.20
2018-10-06T16:08:15.963Z,5.67
2018-10-06T16:10:44.977Z,6.73
2018-10-06T16:13:14.179Z,6.23
2018-10-06T16:15:43.337Z,3.97
2018-10-06T16:18:12.354Z,7.13
2018-10-06T16:20:41.376Z,5.67
2018-10-06T16:23:10.462Z,7.20
2018-10-06T16:25:39.519Z,6.23
2018-10-06T16:28:08.614Z,5.80
2018-10-06T16:30:37.644Z,5.53
2018-10-06T16:33:06.945Z,8.07
2018-10-06T16:35:36.070Z,6.10
2018-10-06T16:38:05.273Z,5.10
2018-10-06T16:40:34.341Z,5.63
2018-10-06T16:43:03.444Z,6.63
2018-10-06T16:45:32.820Z,9.10
2018-10-06T16:48:01.939Z,9.57
2018-10-06T16:50:31.082Z,5.93
2018-10-06T16:53:00.146Z,7.73
2018-10-06T16:55:29.182Z,6.30
2018-10-06T16:57:58.258Z,8.70
2018-10-06T17:00:27.415Z,11.23
2018-10-06T17:02:56.442Z,6.90
2018-10-06T17:05:25.551Z,8.60
2018-10-06T17:07:54.654Z,8.50
2018-10-06T17:10:24.509Z,8.10
2018-10-06T17:12:53.598Z,6.13
2018-10-06T17:15:22.677Z,7.47
2018-10-06T17:17:51.674Z,8.63
2018-10-06T17:20:21.016Z,6.77
2018-10-06T17:22:50.064Z,7.57
2018-10-06T17:25:19.081Z,5.83
2018-10-06T17:27:48.158Z,7.33
2018-10-06T17:30:17.332Z,8.10
2018-10-06T17:32:46.377Z,6.33
2018-10-06T17:35:15.373Z,6.53
2018-10-06T17:37:44.455Z,9.30
2018-10-06T17:40:13.491Z,43.90
2018-10-06T17:42:42.561Z,10.53
2018-10-06T17:45:11.631Z,11.27
2018-10-06T17:47:40.785Z,9.70
2018-10-06T17:50:10.104Z,8.57
2018-10-06T17:52:38.928Z,11.07
2018-10-06T17:55:07.929Z,7.37
2018-10-06T17:57:37.468Z,9.73
2018-10-06T18:00:06.521Z,10.47
2018-10-06T18:02:35.515Z,10.17
2018-10-06T18:05:04.614Z,7.30
2018-10-06T18:07:33.721Z,7.60
2018-10-06T18:10:02.860Z,9.47
2018-10-06T18:12:31.885Z,10.30
2018-10-06T18:15:00.969Z,10.30
2018-10-06T18:17:30.051Z,8.53
2018-10-06T18:19:59.149Z,11.63
2018-10-06T18:22:28.143Z,9.33
2018-10-06T18:24:57.233Z,10.10
2018-10-06T18:27:26.311Z,13.33
2018-10-06T18:29:55.373Z,16.20
2018-10-06T18:32:24.439Z,15.83
2018-10-06T18:34:53.556Z,16.67
2018-10-06T18:37:22.715Z,17.70
2018-10-06T18:39:51.743Z,19.43
2018-10-06T18:42:20.806Z,16.50
2018-10-06T18:44:49.937Z,20.67
2018-10-06T18:47:19.059Z,21.00
2018-10-06T18:49:48.122Z,26.40
2018-10-06T18:52:17.232Z,25.93
2018-10-06T18:54:46.375Z,27.53
2018-10-06T18:57:15.407Z,28.40
2018-10-06T18:59:44.516Z,26.67
2018-10-06T19:02:13.635Z,32.87
2018-10-06T19:04:42.725Z,34.43
2018-10-06T19:07:11.788Z,28.50
2018-10-06T19:09:40.895Z,28.63
2018-10-06T19:12:10.025Z,31.13
2018-10-06T19:14:39.082Z,37.73
2018-10-06T19:17:08.169Z,31.87
2018-10-06T19:19:37.308Z,31.90
2018-10-06T19:22:06.364Z,33.87
2018-10-06T19:24:35.434Z,41.10
2018-10-06T19:27:04.601Z,33.33
2018-10-06T19:29:33.690Z,33.57
2018-10-06T19:32:02.730Z,40.43
2018-10-06T19:34:31.852Z,40.77
2018-10-06T19:37:00.886Z,37.13
2018-10-06T19:39:29.948Z,38.97
2018-10-06T19:41:59.018Z,35.57
2018-10-06T19:44:28.343Z,36.80
2018-10-06T19:46:57.450Z,37.87
2018-10-06T19:49:26.440Z,38.90
2018-10-06T19:51:55.456Z,34.13
2018-10-06T19:54:24.475Z,40.97
2018-10-06T19:56:53.467Z,40.40
2018-10-06T19:59:22.482Z,33.83
2018-10-06T20:01:51.626Z,37.10
2018-10-06T20:04:20.784Z,37.53
2018-10-06T20:06:49.744Z,36.70
2018-10-06T20:09:18.744Z,39.07
2018-10-06T20:11:47.824Z,35.10
2018-10-06T20:14:16.907Z,41.30
2018-10-06T20:16:45.978Z,40.43
2018-10-06T20:19:15.162Z,33.80
2018-10-06T20:21:44.158Z,36.83
2018-10-06T20:24:13.216Z,38.53
2018-10-06T20:26:42.226Z,35.67
2018-10-06T20:29:17.832Z,40.97
2018-10-06T20:31:46.986Z,40.87
2018-10-06T20:34:16.098Z,39.57
2018-10-06T20:36:45.183Z,38.63
2018-10-06T20:39:14.278Z,42.97
2018-10-06T20:41:43.394Z,40.73
2018-10-06T20:44:12.426Z,42.37
2018-10-06T20:46:41.461Z,39.57
2018-10-06T20:49:10.537Z,42.63
2018-10-06T20:51:39.638Z,46.17
2018-10-06T20:54:08.765Z,46.50
2018-10-06T20:56:37.796Z,46.70
2018-10-06T20:59:06.805Z,44.13
2018-10-06T21:01:35.959Z,47.50
2018-10-06T21:04:05.014Z,47.87
2018-10-06T21:06:34.077Z,48.17
2018-10-06T21:09:03.195Z,48.77
2018-10-06T21:11:32.307Z,52.40
2018-10-06T21:14:01.385Z,58.67
2018-10-06T21:16:30.357Z,53.53
2018-10-06T21:18:59.406Z,56.10
2018-10-06T21:21:28.497Z,55.37
2018-10-06T21:23:57.554Z,54.00
2018-10-06T21:26:26.557Z,61.87
2018-10-06T21:28:55.627Z,58.83
2018-10-06T21:31:24.643Z,57.37
2018-10-06T21:33:53.617Z,62.00
2018-10-06T21:36:22.615Z,67.23
2018-10-06T21:38:51.700Z,67.53
2018-10-06T21:41:20.717Z,62.23
2018-10-06T21:43:49.909Z,63.13
2018-10-06T21:46:19.859Z,65.67
2018-10-06T21:48:48.865Z,65.00
2018-10-06T21:51:17.883Z,70.67
2018-10-06T21:53:46.927Z,69.17
2018-10-06T21:56:15.987Z,68.77
2018-10-06T21:58:45.004Z,66.43
2018-10-06T22:01:14.936Z,83.70
2018-10-06T22:03:43.906Z,73.13
2018-10-06T22:06:12.921Z,73.27
2018-10-06T22:08:42.569Z,79.87
2018-10-06T22:11:12.959Z,78.33
2018-10-06T22:13:42.487Z,81.40
2018-10-06T22:16:11.516Z,88.17
2018-10-06T22:18:40.568Z,87.53
2018-10-06T22:21:09.735Z,89.10
2018-10-06T22:23:38.942Z,88.70
2018-10-06T22:26:08.050Z,86.43
2018-10-06T22:28:37.164Z,88.73
2018-10-06T22:31:06.439Z,95.27
2018-10-06T22:33:35.582Z,100.03
2018-10-06T22:36:04.668Z,100.90
2018-10-06T22:38:33.838Z,93.23
2018-10-06T22:41:02.933Z,93.50
2018-10-06T22:43:32.071Z,96.23
2018-10-06T22:46:01.216Z,92.73
2018-10-06T22:48:30.413Z,99.37
2018-10-06T22:50:59.539Z,99.70
2018-10-06T22:53:28.694Z,108.13
2018-10-06T22:55:57.803Z,108.57
2018-10-06T22:58:26.973Z,110.27
2018-10-06T23:00:56.019Z,110.57
2018-10-06T23:03:25.128Z,106.93
2018-10-06T23:05:54.280Z,111.73
2018-10-06T23:08:23.619Z,113.00
2018-10-06T23:10:52.703Z,118.33
2018-10-06T23:13:21.847Z,112.57
2018-10-06T23:15:50.883Z,116.97
2018-10-06T23:18:19.985Z,124.13
2018-10-06T23:20:49.714Z,121.00
2018-10-06T23:23:18.854Z,121.13
2018-10-06T23:25:48.172Z,120.20
2018-10-06T23:28:17.303Z,120.80
2018-10-06T23:30:46.390Z,124.47
2018-10-06T23:33:15.491Z,124.00
2018-10-06T23:35:44.629Z,113.90
2018-10-06T23:38:13.757Z,122.20
2018-10-06T23:40:42.871Z,127.47
2018-10-06T23:43:11.980Z,136.10
2018-10-06T23:45:41.082Z,129.53
2018-10-06T23:48:10.169Z,139.63
2018-10-06T23:50:39.271Z,139.80
2018-10-06T23:53:08.387Z,153.87
2018-10-06T23:55:37.435Z,143.27
2018-10-06T23:58:06.548Z,145.93
